Time;durP1;ratioP1;P1;durP2;ratioP2;P2;SDS_P1;SDS_P2;PMS_P1;PMS_P2;Temp;Humidity;BMP_temperature;BMP_pressure;BME280_temperature;BME280_humidity;BME280_pressure;Samples;Min_cycle;Max_cycle;Signal;HPM_P1;HPM_P2
2022/06/28 00:01:04;;;;;;;4.05;2.60;;;;;;;;;;5058439;28;20263;-57
2022/06/28 00:03:32;;;;;;;2.50;2.30;;;;;;;;;;5057146;28;20300;-57
2022/06/28 00:05:59;;;;;;;3.10;2.30;;;;;;;;;;5058380;28;20672;-57
2022/06/28 00:08:27;;;;;;;2.70;2.53;;;;;;;;;;5057958;28;20323;-57
2022/06/28 00:10:54;;;;;;;2.72;2.53;;;;;;;;;;5058209;28;20636;-57
2022/06/28 00:13:22;;;;;;;2.88;2.58;;;;;;;;;;5058167;28;20287;-57
2022/06/28 00:16:06;;;;;;;2.60;2.40;;;;;;;;;;5057986;28;20227;-56
2022/06/28 00:18:36;;;;;;;2.88;2.50;;;;;;;;;;5058136;28;20196;-57
2022/06/28 00:21:06;;;;;;;2.60;2.40;;;;;;;;;;5057993;28;20655;-57
2022/06/28 00:23:33;;;;;;;2.88;2.67;;;;;;;;;;5057722;28;20248;-57
2022/06/28 00:26:01;;;;;;;2.90;2.70;;;;;;;;;;5058022;28;20747;-57
2022/06/28 00:28:28;;;;;;;2.40;2.30;;;;;;;;;;5076572;28;20281;-57
2022/06/28 00:30:56;;;;;;;2.70;2.50;;;;;;;;;;5077717;28;20247;-57
2022/06/28 00:33:24;;;;;;;2.70;2.50;;;;;;;;;;5077609;28;20204;-57
2022/06/28 00:35:52;;;;;;;3.80;2.55;;;;;;;;;;5077881;28;20242;-57
2022/06/28 00:38:20;;;;;;;3.72;2.60;;;;;;;;;;5059662;28;20220;-57
2022/06/28 00:40:48;;;;;;;2.58;2.38;;;;;;;;;;5058155;28;20231;-57
2022/06/28 00:43:16;;;;;;;2.95;2.50;;;;;;;;;;5058095;28;20270;-57
2022/06/28 00:45:46;;;;;;;2.72;2.50;;;;;;;;;;5058350;28;20269;-57
2022/06/28 00:48:14;;;;;;;2.58;2.38;;;;;;;;;;5075443;28;20622;-57
2022/06/28 00:50:41;;;;;;;3.83;2.78;;;;;;;;;;5082043;28;20211;-57
2022/06/28 00:53:12;;;;;;;3.05;2.40;;;;;;;;;;5082628;28;20298;-57
2022/06/28 00:55:40;;;;;;;3.22;2.33;;;;;;;;;;5082258;28;20204;-57
2022/06/28 00:58:09;;;;;;;2.95;2.60;;;;;;;;;;5065609;28;20204;-57
2022/06/28 01:00:40;;;;;;;2.90;2.67;;;;;;;;;;5062079;28;20208;-57
2022/06/28 01:03:08;;;;;;;2.60;2.40;;;;;;;;;;5062060;28;20212;-57
2022/06/28 01:05:38;;;;;;;2.85;2.65;;;;;;;;;;5062228;28;20212;-57
2022/06/28 01:08:06;;;;;;;2.90;2.60;;;;;;;;;;5062303;28;20207;-57
2022/06/28 01:10:35;;;;;;;2.83;2.50;;;;;;;;;;5061949;28;20213;-57
2022/06/28 01:13:04;;;;;;;3.30;3.00;;;;;;;;;;5062160;28;20209;-57
2022/06/28 01:15:32;;;;;;;3.33;3.10;;;;;;;;;;5062259;28;20566;-57
2022/06/28 01:18:00;;;;;;;5.28;3.53;;;;;;;;;;5076591;28;20474;-57
2022/06/28 01:20:28;;;;;;;3.17;2.97;;;;;;;;;;5081779;28;20200;-57
2022/06/28 01:22:57;;;;;;;3.30;3.00;;;;;;;;;;5081695;28;20231;-57
2022/06/28 01:25:25;;;;;;;3.13;2.78;;;;;;;;;;5081700;28;20250;-57
2022/06/28 01:27:53;;;;;;;4.07;3.78;;;;;;;;;;5067368;28;20644;-57
2022/06/28 01:30:21;;;;;;;5.10;3.42;;;;;;;;;;5061462;28;20315;-57
2022/06/28 01:32:48;;;;;;;4.70;4.30;;;;;;;;;;5061600;28;20204;-57
2022/06/28 01:35:16;;;;;;;4.00;3.70;;;;;;;;;;5061537;28;20292;-57
2022/06/28 01:37:43;;;;;;;4.15;3.85;;;;;;;;;;5072517;28;20323;-57
2022/06/28 01:40:12;;;;;;;3.67;3.47;;;;;;;;;;5081528;28;20197;-57
2022/06/28 01:42:40;;;;;;;3.85;3.60;;;;;;;;;;5079422;28;20588;-57
2022/06/28 01:45:08;;;;;;;3.90;3.55;;;;;;;;;;5081137;28;20235;-57
2022/06/28 01:47:36;;;;;;;4.15;3.58;;;;;;;;;;5070826;28;20612;-57
2022/06/28 01:50:04;;;;;;;3.70;3.42;;;;;;;;;;5061447;28;20284;-57
2022/06/28 01:52:32;;;;;;;3.58;3.28;;;;;;;;;;5061482;28;20216;-57
2022/06/28 01:55:00;;;;;;;3.95;3.65;;;;;;;;;;5061582;28;20312;-57
2022/06/28 01:57:29;;;;;;;3.90;3.60;;;;;;;;;;5070125;28;20212;-57
2022/06/28 01:59:56;;;;;;;3.55;3.35;;;;;;;;;;5080627;28;20236;-57
2022/06/28 02:02:24;;;;;;;3.90;3.45;;;;;;;;;;5080917;28;20204;-57
2022/06/28 02:04:51;;;;;;;4.05;3.75;;;;;;;;;;5081116;28;20236;-57
2022/06/28 02:07:19;;;;;;;3.75;3.45;;;;;;;;;;5072892;28;20227;-56
2022/06/28 02:09:46;;;;;;;3.90;3.60;;;;;;;;;;5060339;28;20316;-57
2022/06/28 02:12:14;;;;;;;4.50;4.13;;;;;;;;;;5061077;28;20251;-57
2022/06/28 02:14:42;;;;;;;3.95;3.65;;;;;;;;;;5061323;28;20201;-57
2022/06/28 02:17:11;;;;;;;3.50;3.30;;;;;;;;;;5066596;28;20208;-57
2022/06/28 02:19:38;;;;;;;4.13;3.65;;;;;;;;;;5080554;28;20594;-57
2022/06/28 02:22:06;;;;;;;3.83;3.63;;;;;;;;;;5080375;28;20235;-57
2022/06/28 02:24:34;;;;;;;3.90;3.60;;;;;;;;;;5080501;28;20205;-57
2022/06/28 02:27:01;;;;;;;3.85;3.60;;;;;;;;;;5079923;28;20476;-57
2022/06/28 02:29:29;;;;;;;4.00;3.70;;;;;;;;;;5080415;28;20310;-57
2022/06/28 02:31:57;;;;;;;4.05;3.75;;;;;;;;;;5080407;28;20219;-57
2022/06/28 02:42:59;;;;;;;4.00;3.70;;;;;;;;;;4998833;28;20290;-56
2022/06/28 02:45:27;;;;;;;4.22;3.90;;;;;;;;;;4999040;28;20207;-57
2022/06/28 02:47:56;;;;;;;4.82;4.07;;;;;;;;;;5026899;28;20607;-57
2022/06/28 02:50:25;;;;;;;4.00;3.70;;;;;;;;;;5059887;28;20577;-57
2022/06/28 02:52:53;;;;;;;4.40;4.05;;;;;;;;;;5060082;28;20312;-56
2022/06/28 02:55:20;;;;;;;4.18;3.80;;;;;;;;;;5060290;28;20211;-57
2022/06/28 02:57:48;;;;;;;4.43;4.00;;;;;;;;;;5072722;28;20196;-57
2022/06/28 03:00:16;;;;;;;4.18;3.83;;;;;;;;;;5078333;28;20201;-56
2022/06/28 03:02:45;;;;;;;4.40;4.10;;;;;;;;;;5059392;28;20197;-56
2022/06/28 03:05:14;;;;;;;4.18;3.88;;;;;;;;;;5059881;28;20215;-56
2022/06/28 03:07:42;;;;;;;4.10;3.80;;;;;;;;;;5072211;28;20576;-57
2022/06/28 03:10:10;;;;;;;4.38;3.97;;;;;;;;;;5079096;28;20224;-56
2022/06/28 03:12:38;;;;;;;4.55;4.25;;;;;;;;;;5078908;28;20210;-56
2022/06/28 03:15:06;;;;;;;4.50;4.20;;;;;;;;;;5079693;28;20196;-56
2022/06/28 03:17:34;;;;;;;4.80;4.28;;;;;;;;;;5067722;28;20237;-56
2022/06/28 03:20:01;;;;;;;4.15;3.83;;;;;;;;;;5059714;28;20464;-57
2022/06/28 03:22:30;;;;;;;4.72;4.30;;;;;;;;;;5058887;28;20205;-56
2022/06/28 03:24:57;;;;;;;4.53;4.22;;;;;;;;;;5058980;28;20288;-56
2022/06/28 03:27:25;;;;;;;4.32;4.03;;;;;;;;;;5068479;28;20200;-56
2022/06/28 03:29:53;;;;;;;4.43;4.00;;;;;;;;;;5079147;28;20457;-57
2022/06/28 03:32:20;;;;;;;3.50;3.30;;;;;;;;;;5079606;28;20239;-56
2022/06/28 03:34:48;;;;;;;5.00;4.60;;;;;;;;;;5078961;28;20299;-56
2022/06/28 03:37:15;;;;;;;5.10;4.65;;;;;;;;;;5070965;28;20558;-56
2022/06/28 03:39:44;;;;;;;4.80;4.50;;;;;;;;;;5058757;28;20197;-56
2022/06/28 03:42:12;;;;;;;6.32;4.43;;;;;;;;;;5058418;28;20585;-56
2022/06/28 03:44:40;;;;;;;4.63;4.30;;;;;;;;;;5058641;28;20204;-56
2022/06/28 03:47:07;;;;;;;4.30;4.00;;;;;;;;;;5064326;28;20204;-56
2022/06/28 03:49:35;;;;;;;4.60;4.22;;;;;;;;;;5078795;28;20282;-56
2022/06/28 03:52:02;;;;;;;4.43;4.03;;;;;;;;;;5078834;28;20244;-56
2022/06/28 03:54:29;;;;;;;4.57;4.28;;;;;;;;;;5078147;28;20244;-56
2022/06/28 03:56:59;;;;;;;4.53;4.22;;;;;;;;;;5077787;28;20197;-56
2022/06/28 03:59:26;;;;;;;5.45;4.97;;;;;;;;;;5078325;28;20680;-56
2022/06/28 04:01:54;;;;;;;5.18;4.68;;;;;;;;;;5078368;28;20239;-56
2022/06/28 04:04:21;;;;;;;5.70;5.20;;;;;;;;;;5078213;28;20222;-56
2022/06/28 04:06:48;;;;;;;6.35;5.85;;;;;;;;;;5063703;28;20207;-61
2022/06/28 04:09:16;;;;;;;7.88;6.90;;;;;;;;;;5057922;28;20229;-56
2022/06/28 04:11:44;;;;;;;7.43;6.82;;;;;;;;;;5057851;28;20205;-57
2022/06/28 04:14:13;;;;;;;7.18;6.55;;;;;;;;;;5057457;28;20240;-56
2022/06/28 04:16:42;;;;;;;7.82;7.18;;;;;;;;;;5069626;28;20596;-56
2022/06/28 04:19:09;;;;;;;7.82;7.07;;;;;;;;;;5077412;28;20208;-56
2022/06/28 04:21:37;;;;;;;7.93;7.28;;;;;;;;;;5077930;28;20205;-56
2022/06/28 04:24:05;;;;;;;8.10;7.50;;;;;;;;;;5077858;28;20267;-56
2022/06/28 04:26:32;;;;;;;9.98;9.07;;;;;;;;;;5066414;28;20748;-56
2022/06/28 04:29:00;;;;;;;9.40;8.60;;;;;;;;;;5056961;28;20205;-56
2022/06/28 04:31:29;;;;;;;8.93;8.23;;;;;;;;;;5057265;28;20200;-57
2022/06/28 04:33:56;;;;;;;9.43;8.68;;;;;;;;;;5056932;28;20292;-56
2022/06/28 04:36:26;;;;;;;9.65;8.75;;;;;;;;;;5066666;28;20510;-56
2022/06/28 04:38:54;;;;;;;10.27;9.38;;;;;;;;;;5076118;28;20266;-57
2022/06/28 04:41:24;;;;;;;10.07;9.27;;;;;;;;;;5075742;28;20201;-56
2022/06/28 04:43:53;;;;;;;12.55;11.48;;;;;;;;;;5075898;28;20200;-56
2022/06/28 04:46:20;;;;;;;11.60;10.68;;;;;;;;;;5066804;28;20541;-56
2022/06/28 04:48:51;;;;;;;10.73;9.90;;;;;;;;;;5056054;28;20311;-57
2022/06/28 04:51:18;;;;;;;11.98;10.98;;;;;;;;;;5055117;28;20225;-56
2022/06/28 04:53:47;;;;;;;12.18;11.18;;;;;;;;;;5056337;28;20205;-56
2022/06/28 04:56:15;;;;;;;11.73;10.73;;;;;;;;;;5063185;28;20211;-56
2022/06/28 04:58:42;;;;;;;12.15;11.05;;;;;;;;;;5074893;28;20500;-56
2022/06/28 05:01:10;;;;;;;11.80;10.80;;;;;;;;;;5074738;28;20311;-56
2022/06/28 05:03:38;;;;;;;13.63;12.43;;;;;;;;;;5074902;28;20196;-57
2022/06/28 05:06:07;;;;;;;12.85;11.68;;;;;;;;;;5074668;28;20201;-56
2022/06/28 05:08:36;;;;;;;13.40;12.27;;;;;;;;;;5075138;28;20216;-57
2022/06/28 05:11:04;;;;;;;13.32;12.13;;;;;;;;;;5074843;28;20235;-56
2022/06/28 05:13:31;;;;;;;14.02;12.82;;;;;;;;;;5074752;28;20315;-57
2022/06/28 05:15:58;;;;;;;13.48;12.27;;;;;;;;;;5068344;28;20193;-57
2022/06/28 05:18:26;;;;;;;13.68;12.38;;;;;;;;;;5054124;28;20586;-56
2022/06/28 05:20:54;;;;;;;13.90;12.68;;;;;;;;;;5055008;28;20586;-56
2022/06/28 05:23:22;;;;;;;13.05;11.85;;;;;;;;;;5054294;28;20219;-56
2022/06/28 05:25:50;;;;;;;13.07;11.98;;;;;;;;;;5054786;28;20284;-56
2022/06/28 05:28:17;;;;;;;14.05;12.90;;;;;;;;;;5053953;28;20297;-56
2022/06/28 05:30:45;;;;;;;12.68;11.57;;;;;;;;;;5053229;28;20221;-56
2022/06/28 05:33:13;;;;;;;12.90;11.82;;;;;;;;;;5054179;28;20585;-56
2022/06/28 05:35:40;;;;;;;12.93;11.75;;;;;;;;;;5059243;28;20213;-65
2022/06/28 05:38:08;;;;;;;11.77;10.77;;;;;;;;;;5078332;28;20307;-56
2022/06/28 05:40:37;;;;;;;11.27;10.38;;;;;;;;;;5077781;28;20744;-56
2022/06/28 05:43:05;;;;;;;10.15;9.30;;;;;;;;;;5078170;28;20479;-56
2022/06/28 05:45:32;;;;;;;9.98;9.18;;;;;;;;;;5076297;28;20204;-56
2022/06/28 05:48:01;;;;;;;9.27;8.48;;;;;;;;;;5056920;28;20213;-56
2022/06/28 05:50:28;;;;;;;7.97;7.35;;;;;;;;;;5057609;28;20239;-56
2022/06/28 05:52:55;;;;;;;7.90;7.20;;;;;;;;;;5057321;28;20201;-56
2022/06/28 05:55:23;;;;;;;6.95;6.45;;;;;;;;;;5056740;28;20269;-56
2022/06/28 05:57:52;;;;;;;6.80;6.10;;;;;;;;;;5055748;28;20703;-56
2022/06/28 06:00:20;;;;;;;5.43;5.03;;;;;;;;;;5056605;28;20193;-56
2022/06/28 06:02:49;;;;;;;6.03;5.53;;;;;;;;;;5057262;28;20490;-56
2022/06/28 06:05:17;;;;;;;5.53;5.00;;;;;;;;;;5057162;28;20343;-56
2022/06/28 06:07:44;;;;;;;5.60;5.10;;;;;;;;;;5076359;28;20564;-56
2022/06/28 06:10:12;;;;;;;4.90;4.50;;;;;;;;;;5078156;28;20311;-56
2022/06/28 06:12:39;;;;;;;4.50;4.20;;;;;;;;;;5077129;28;20773;-56
2022/06/28 06:15:09;;;;;;;4.90;4.50;;;;;;;;;;5077044;28;20215;-56
2022/06/28 06:17:36;;;;;;;4.65;4.35;;;;;;;;;;5059812;28;20225;-56
2022/06/28 06:20:04;;;;;;;3.92;3.60;;;;;;;;;;5058100;28;20201;-56
2022/06/28 06:22:32;;;;;;;4.15;3.85;;;;;;;;;;5057743;28;20292;-56
2022/06/28 06:24:59;;;;;;;4.15;3.85;;;;;;;;;;5058263;28;20205;-56
2022/06/28 06:27:27;;;;;;;4.13;3.83;;;;;;;;;;5072672;28;20592;-56
2022/06/28 06:29:54;;;;;;;4.30;4.00;;;;;;;;;;5077538;28;20211;-57
2022/06/28 06:32:23;;;;;;;4.20;3.90;;;;;;;;;;5077872;28;20210;-56
2022/06/28 06:34:50;;;;;;;4.10;3.75;;;;;;;;;;5077226;28;20211;-56
2022/06/28 06:37:18;;;;;;;5.28;4.78;;;;;;;;;;5062375;28;20261;-56
2022/06/28 06:39:46;;;;;;;7.13;6.43;;;;;;;;;;5057680;28;20211;-56
2022/06/28 06:42:13;;;;;;;5.40;5.00;;;;;;;;;;5057372;28;20205;-56
2022/06/28 06:44:40;;;;;;;5.75;5.25;;;;;;;;;;5057816;28;20300;-56
2022/06/28 06:47:08;;;;;;;5.38;4.90;;;;;;;;;;5069944;28;20228;-56
2022/06/28 06:49:37;;;;;;;5.80;5.30;;;;;;;;;;5077445;28;20196;-56
2022/06/28 06:52:05;;;;;;;5.85;5.45;;;;;;;;;;5077599;28;20558;-56
2022/06/28 06:54:32;;;;;;;6.65;5.70;;;;;;;;;;5077585;28;20243;-57
2022/06/28 06:57:00;;;;;;;6.03;5.60;;;;;;;;;;5064886;28;20280;-57
2022/06/28 06:59:27;;;;;;;6.57;6.07;;;;;;;;;;5057766;28;20228;-56
2022/06/28 07:01:55;;;;;;;6.50;6.00;;;;;;;;;;5056738;28;20284;-56
2022/06/28 07:04:22;;;;;;;7.15;5.65;;;;;;;;;;5056838;28;20205;-56
2022/06/28 07:06:51;;;;;;;6.28;5.80;;;;;;;;;;5066596;28;20228;-56
2022/06/28 07:09:19;;;;;;;6.38;5.88;;;;;;;;;;5077324;28;20737;-56
2022/06/28 07:11:46;;;;;;;5.93;5.43;;;;;;;;;;5077142;28;20741;-56
2022/06/28 07:14:13;;;;;;;6.40;5.90;;;;;;;;;;5077487;28;20211;-56
2022/06/28 07:16:41;;;;;;;6.18;5.68;;;;;;;;;;5067770;28;20468;-56
2022/06/28 07:19:10;;;;;;;6.63;6.07;;;;;;;;;;5057059;28;20605;-56
2022/06/28 07:21:38;;;;;;;6.60;6.10;;;;;;;;;;5057853;28;20299;-57
2022/06/28 07:24:09;;;;;;;5.72;5.32;;;;;;;;;;5056593;28;20696;-56
2022/06/28 07:26:36;;;;;;;5.75;5.35;;;;;;;;;;5064763;28;20200;-56
2022/06/28 07:29:04;;;;;;;5.63;5.22;;;;;;;;;;5077192;28;20292;-56
2022/06/28 07:31:31;;;;;;;5.28;4.88;;;;;;;;;;5076865;28;20292;-56
2022/06/28 07:33:59;;;;;;;4.90;4.50;;;;;;;;;;5075840;28;20211;-56
2022/06/28 07:36:26;;;;;;;4.80;4.40;;;;;;;;;;5069548;28;20324;-56
2022/06/28 07:38:55;;;;;;;5.47;4.97;;;;;;;;;;5056464;28;20197;-56
2022/06/28 07:41:24;;;;;;;4.57;4.18;;;;;;;;;;5056546;28;20201;-56
2022/06/28 07:43:52;;;;;;;4.68;4.28;;;;;;;;;;5055113;28;20201;-56
2022/06/28 07:46:19;;;;;;;4.18;3.72;;;;;;;;;;5059802;28;20192;-56
2022/06/28 07:48:50;;;;;;;3.95;3.65;;;;;;;;;;5075650;28;20204;-56
2022/06/28 07:54:03;;;;;;;4.28;3.88;;;;;;;;;;5075185;28;20191;-56
2022/06/28 07:56:32;;;;;;;3.70;3.40;;;;;;;;;;5068760;28;20197;-56
2022/06/28 07:59:00;;;;;;;3.50;3.13;;;;;;;;;;5055084;28;20233;-56
2022/06/28 08:01:28;;;;;;;3.20;2.90;;;;;;;;;;5055409;28;20205;-56
2022/06/28 08:03:56;;;;;;;2.90;2.70;;;;;;;;;;5055434;28;20216;-56
2022/06/28 08:06:23;;;;;;;3.40;3.10;;;;;;;;;;5059974;28;20196;-56
2022/06/28 08:08:51;;;;;;;3.92;3.20;;;;;;;;;;5075148;28;20655;-56
2022/06/28 08:11:18;;;;;;;2.53;2.40;;;;;;;;;;5074794;28;20743;-56
2022/06/28 08:13:48;;;;;;;3.30;3.00;;;;;;;;;;5075986;28;20212;-56
2022/06/28 08:16:16;;;;;;;2.28;2.08;;;;;;;;;;5071332;28;20822;-56
2022/06/28 08:18:44;;;;;;;1.88;1.77;;;;;;;;;;5054873;28;20488;-56
2022/06/28 08:21:11;;;;;;;1.75;1.65;;;;;;;;;;5054636;28;20829;-56
2022/06/28 08:23:39;;;;;;;1.70;1.60;;;;;;;;;;5055008;28;20204;-56
2022/06/28 08:26:06;;;;;;;2.53;2.10;;;;;;;;;;5056386;28;20197;-58
2022/06/28 08:28:33;;;;;;;2.65;2.00;;;;;;;;;;5067920;28;20551;-56
2022/06/28 08:31:02;;;;;;;2.45;2.00;;;;;;;;;;5055538;28;20324;-56
2022/06/28 08:33:30;;;;;;;3.08;1.58;;;;;;;;;;5054387;28;20197;-57
2022/06/28 08:35:58;;;;;;;1.63;1.52;;;;;;;;;;5055595;28;20324;-56
2022/06/28 08:38:25;;;;;;;1.67;1.58;;;;;;;;;;5074495;28;20264;-56
2022/06/28 08:40:53;;;;;;;1.60;1.50;;;;;;;;;;5074574;28;20207;-56
2022/06/28 08:43:21;;;;;;;3.15;1.90;;;;;;;;;;5074441;28;20240;-56
2022/06/28 08:45:49;;;;;;;1.77;1.63;;;;;;;;;;5074637;28;20240;-57
2022/06/28 08:48:21;;;;;;;1.60;1.50;;;;;;;;;;5055342;28;20240;-56
2022/06/28 08:50:52;;;;;;;1.65;1.55;;;;;;;;;;5054997;28;20220;-56
2022/06/28 08:53:21;;;;;;;1.50;1.40;;;;;;;;;;5054455;28;20205;-56
2022/06/28 08:55:50;;;;;;;1.70;1.60;;;;;;;;;;5055397;28;20203;-56
2022/06/28 08:58:18;;;;;;;1.52;1.42;;;;;;;;;;5074543;28;20211;-56
2022/06/28 09:00:45;;;;;;;1.50;1.40;;;;;;;;;;5075090;28;20310;-56
2022/06/28 09:03:12;;;;;;;1.65;1.50;;;;;;;;;;5074932;28;20251;-56
2022/06/28 09:05:41;;;;;;;1.58;1.40;;;;;;;;;;5074332;28;20304;-56
2022/06/28 09:08:09;;;;;;;1.95;1.40;;;;;;;;;;5055721;28;20223;-56
2022/06/28 09:10:37;;;;;;;1.48;1.38;;;;;;;;;;5056573;28;20196;-56
2022/06/28 09:13:09;;;;;;;1.50;1.40;;;;;;;;;;5058098;28;20205;-56
2022/06/28 09:15:49;;;;;;;1.40;1.30;;;;;;;;;;5058168;28;20201;-56
2022/06/28 09:18:17;;;;;;;1.30;1.20;;;;;;;;;;5077667;28;20204;-56
2022/06/28 09:20:46;;;;;;;1.42;1.33;;;;;;;;;;5079596;28;20239;-56
2022/06/28 09:23:27;;;;;;;1.50;1.40;;;;;;;;;;5079109;28;20205;-56
2022/06/28 09:25:56;;;;;;;1.83;1.40;;;;;;;;;;5078502;28;20206;-56
2022/06/28 09:28:25;;;;;;;1.35;1.25;;;;;;;;;;5077210;28;20552;-55
2022/06/28 09:30:52;;;;;;;1.40;1.30;;;;;;;;;;5077223;28;20576;-55
2022/06/28 09:33:26;;;;;;;1.50;1.40;;;;;;;;;;5077698;28;20209;-56
2022/06/28 09:35:56;;;;;;;1.50;1.40;;;;;;;;;;5077299;28;20225;-57
2022/06/28 09:38:34;;;;;;;1.08;1.08;;;;;;;;;;5058373;28;20299;-56
2022/06/28 09:41:01;;;;;;;1.33;1.23;;;;;;;;;;5056636;28;20201;-56
2022/06/28 09:43:33;;;;;;;1.13;1.08;;;;;;;;;;5057110;28;20197;-56
2022/06/28 09:46:04;;;;;;;2.40;1.35;;;;;;;;;;5057267;28;20253;-56
2022/06/28 09:48:35;;;;;;;1.20;1.10;;;;;;;;;;5057470;28;20201;-56
2022/06/28 09:51:05;;;;;;;1.52;1.17;;;;;;;;;;5057153;28;20688;-56
2022/06/28 09:53:35;;;;;;;1.38;1.27;;;;;;;;;;5057592;28;20201;-56
2022/06/28 09:56:03;;;;;;;2.15;1.40;;;;;;;;;;5057448;28;20492;-56
2022/06/28 09:58:32;;;;;;;1.27;1.17;;;;;;;;;;5056157;28;20292;-56
2022/06/28 10:01:00;;;;;;;1.30;1.20;;;;;;;;;;5057466;28;20714;-56
2022/06/28 10:03:28;;;;;;;2.15;1.23;;;;;;;;;;5058010;28;20640;-56
2022/06/28 10:05:56;;;;;;;1.40;1.30;;;;;;;;;;5058068;28;20511;-56
2022/06/28 10:08:26;;;;;;;1.10;0.98;;;;;;;;;;5075500;28;20196;-56
2022/06/28 10:10:53;;;;;;;1.30;1.20;;;;;;;;;;5077211;28;20205;-56
2022/06/28 10:16:12;;;;;;;1.30;1.20;;;;;;;;;;5076185;28;20326;-56
2022/06/28 10:18:40;;;;;;;1.25;1.15;;;;;;;;;;5056532;28;20209;-56
2022/06/28 10:21:08;;;;;;;1.60;1.50;;;;;;;;;;5056169;28;20201;-56
2022/06/28 10:23:40;;;;;;;1.70;1.60;;;;;;;;;;5057038;28;20205;-56
2022/06/28 10:26:09;;;;;;;1.70;1.60;;;;;;;;;;5056080;28;20207;-56
2022/06/28 10:28:38;;;;;;;2.10;1.80;;;;;;;;;;5056016;28;20236;-56
2022/06/28 10:31:24;;;;;;;1.60;1.50;;;;;;;;;;5055647;28;20459;-56
2022/06/28 10:33:52;;;;;;;1.35;1.25;;;;;;;;;;5056937;28;20244;-56
2022/06/28 10:36:20;;;;;;;1.63;1.52;;;;;;;;;;5056640;28;20233;-56
2022/06/28 10:39:06;;;;;;;1.60;1.50;;;;;;;;;;5076469;28;20723;-56
2022/06/28 10:41:40;;;;;;;1.80;1.70;;;;;;;;;;5076397;28;20659;-56
2022/06/28 10:44:08;;;;;;;1.60;1.50;;;;;;;;;;5076447;28;20204;-55
2022/06/28 10:46:36;;;;;;;1.65;1.55;;;;;;;;;;5074973;28;20192;-56
2022/06/28 10:49:10;;;;;;;1.65;1.55;;;;;;;;;;5076224;28;20590;-56
2022/06/28 10:51:42;;;;;;;1.70;1.60;;;;;;;;;;5076168;28;20233;-56
2022/06/28 10:54:10;;;;;;;1.73;1.60;;;;;;;;;;5076651;28;20216;-56
2022/06/28 10:56:43;;;;;;;1.50;1.40;;;;;;;;;;5074963;28;20784;-57
2022/06/28 10:59:12;;;;;;;3.10;2.00;;;;;;;;;;5075221;28;20200;-56
2022/06/28 11:01:58;;;;;;;1.70;1.60;;;;;;;;;;5075820;28;20686;-56
2022/06/28 11:04:26;;;;;;;1.92;1.67;;;;;;;;;;5076244;28;20247;-56
2022/06/28 11:06:55;;;;;;;2.08;1.65;;;;;;;;;;5073711;28;20300;-56
2022/06/28 11:09:28;;;;;;;1.70;1.60;;;;;;;;;;5075843;28;20382;-56
2022/06/28 11:12:10;;;;;;;1.95;1.85;;;;;;;;;;5075940;28;20320;-56
2022/06/28 11:14:47;;;;;;;1.67;1.58;;;;;;;;;;5073207;28;20270;-56
2022/06/28 11:17:16;;;;;;;1.80;1.70;;;;;;;;;;5075024;28;20356;-56
2022/06/28 11:19:52;;;;;;;1.73;1.63;;;;;;;;;;5075358;28;20599;-56
2022/06/28 11:22:20;;;;;;;1.90;1.80;;;;;;;;;;5075718;28;20200;-56
2022/06/28 11:24:48;;;;;;;1.80;1.70;;;;;;;;;;5075460;28;20636;-56
2022/06/28 11:27:20;;;;;;;1.83;1.73;;;;;;;;;;5067136;28;20251;-56
2022/06/28 11:29:50;;;;;;;2.10;2.00;;;;;;;;;;5054597;28;20197;-56
2022/06/28 11:32:21;;;;;;;1.88;1.77;;;;;;;;;;5053546;28;20786;-56
2022/06/28 11:34:59;;;;;;;1.98;1.88;;;;;;;;;;5054501;28;20204;-56
2022/06/28 11:37:27;;;;;;;1.80;1.70;;;;;;;;;;5062611;28;20271;-56
2022/06/28 11:39:55;;;;;;;2.00;1.90;;;;;;;;;;5075069;28;20204;-56
2022/06/28 11:42:23;;;;;;;2.08;1.88;;;;;;;;;;5074820;28;20197;-56
2022/06/28 11:44:52;;;;;;;2.00;1.83;;;;;;;;;;5075103;28;20196;-56
2022/06/28 11:47:20;;;;;;;1.98;1.88;;;;;;;;;;5066577;28;20228;-56
2022/06/28 11:49:52;;;;;;;2.05;1.95;;;;;;;;;;5054767;28;20219;-56
2022/06/28 11:52:20;;;;;;;2.10;1.90;;;;;;;;;;5054969;28;20233;-56
2022/06/28 11:54:55;;;;;;;2.10;1.90;;;;;;;;;;5054009;28;20371;-56
2022/06/28 11:57:23;;;;;;;1.90;1.80;;;;;;;;;;5062114;28;20207;-56
2022/06/28 11:59:53;;;;;;;2.15;2.05;;;;;;;;;;5073702;28;20197;-56
2022/06/28 12:02:38;;;;;;;2.20;2.00;;;;;;;;;;5074823;28;20263;-56
2022/06/28 12:05:06;;;;;;;2.42;2.22;;;;;;;;;;5075531;28;20543;-56
2022/06/28 12:07:35;;;;;;;2.30;2.20;;;;;;;;;;5074526;28;20193;-56
2022/06/28 12:10:03;;;;;;;2.20;2.10;;;;;;;;;;5075782;28;20443;-56
2022/06/28 12:12:31;;;;;;;2.15;1.95;;;;;;;;;;5070972;28;20278;-56
2022/06/28 12:15:00;;;;;;;1.90;1.80;;;;;;;;;;5054841;28;20211;-56
2022/06/28 12:17:27;;;;;;;2.58;2.10;;;;;;;;;;5061964;28;20197;-56
2022/06/28 12:19:54;;;;;;;2.17;1.98;;;;;;;;;;5073123;28;20344;-56
2022/06/28 12:22:25;;;;;;;2.28;2.08;;;;;;;;;;5073441;28;20196;-56
2022/06/28 12:24:54;;;;;;;1.83;1.73;;;;;;;;;;5073770;28;20619;-56
2022/06/28 12:27:23;;;;;;;2.20;2.00;;;;;;;;;;5066451;28;20201;-56
2022/06/28 12:29:50;;;;;;;1.90;1.80;;;;;;;;;;5054557;28;20494;-56
2022/06/28 12:32:20;;;;;;;2.13;2.03;;;;;;;;;;5053861;28;20231;-56
2022/06/28 12:34:47;;;;;;;3.20;1.90;;;;;;;;;;5053476;28;20678;-56
2022/06/28 12:37:15;;;;;;;2.08;1.98;;;;;;;;;;5058467;28;20242;-56
2022/06/28 12:39:43;;;;;;;2.03;1.92;;;;;;;;;;5073171;28;20212;-56
2022/06/28 12:42:11;;;;;;;2.88;2.10;;;;;;;;;;5072308;28;20207;-56
2022/06/28 12:44:38;;;;;;;2.40;2.30;;;;;;;;;;5073189;28;20226;-56
2022/06/28 12:47:06;;;;;;;2.00;1.90;;;;;;;;;;5068970;28;20647;-56
2022/06/28 12:49:35;;;;;;;2.17;2.08;;;;;;;;;;5053971;28;20553;-56
2022/06/28 12:52:03;;;;;;;2.38;2.20;;;;;;;;;;5054776;28;20452;-56
2022/06/28 12:54:30;;;;;;;2.47;2.28;;;;;;;;;;5053639;28;20291;-56
2022/06/28 12:56:58;;;;;;;2.30;2.10;;;;;;;;;;5059487;28;20210;-56
2022/06/28 12:59:25;;;;;;;2.20;2.00;;;;;;;;;;5071342;28;20196;-56
2022/06/28 13:01:53;;;;;;;2.20;2.00;;;;;;;;;;5074528;28;20254;-56
2022/06/28 13:04:20;;;;;;;2.10;2.00;;;;;;;;;;5073059;28;20283;-56
2022/06/28 13:06:49;;;;;;;2.25;2.10;;;;;;;;;;5073026;28;20599;-56
2022/06/28 13:09:17;;;;;;;2.17;2.08;;;;;;;;;;5073007;28;20201;-56
2022/06/28 13:11:44;;;;;;;2.10;1.98;;;;;;;;;;5073300;28;20307;-56
2022/06/28 13:14:11;;;;;;;2.70;2.45;;;;;;;;;;5072864;28;20220;-56
2022/06/28 13:16:39;;;;;;;2.20;2.10;;;;;;;;;;5072068;28;20207;-57
2022/06/28 13:19:07;;;;;;;2.35;2.15;;;;;;;;;;5053271;28;20679;-56
2022/06/28 13:21:35;;;;;;;2.10;2.00;;;;;;;;;;5053901;28;20240;-56
2022/06/28 13:24:04;;;;;;;2.10;2.00;;;;;;;;;;5053137;28;20193;-57
2022/06/28 13:26:31;;;;;;;2.38;2.17;;;;;;;;;;5055921;28;20201;-56
2022/06/28 13:28:59;;;;;;;2.65;2.45;;;;;;;;;;5072159;28;20283;-56
2022/06/28 13:31:26;;;;;;;3.05;2.20;;;;;;;;;;5072783;28;20590;-56
2022/06/28 13:33:53;;;;;;;2.35;2.15;;;;;;;;;;5072882;28;20349;-56
2022/06/28 13:36:22;;;;;;;2.30;2.20;;;;;;;;;;5072149;28;20239;-59
2022/06/28 13:38:52;;;;;;;2.40;2.20;;;;;;;;;;5056016;28;20281;-56
2022/06/28 13:41:21;;;;;;;2.35;2.25;;;;;;;;;;5052638;28;20209;-56
2022/06/28 13:43:48;;;;;;;2.17;1.90;;;;;;;;;;5052894;28;20207;-56
2022/06/28 13:46:16;;;;;;;2.50;2.30;;;;;;;;;;5052809;28;20608;-56
2022/06/28 13:48:44;;;;;;;2.15;2.05;;;;;;;;;;5067903;28;20250;-56
2022/06/28 13:51:11;;;;;;;2.35;2.13;;;;;;;;;;5072757;28;20211;-56
2022/06/28 13:53:38;;;;;;;2.33;2.22;;;;;;;;;;5073551;28;20228;-56
2022/06/28 13:56:06;;;;;;;2.40;2.22;;;;;;;;;;5074897;28;20254;-56
2022/06/28 13:58:35;;;;;;;2.53;2.20;;;;;;;;;;5063470;28;20291;-56
2022/06/28 14:01:03;;;;;;;2.30;2.10;;;;;;;;;;5056750;28;20682;-57
2022/06/28 14:03:31;;;;;;;2.22;2.13;;;;;;;;;;5056851;28;20215;-56
2022/06/28 14:05:58;;;;;;;2.67;2.45;;;;;;;;;;5055943;28;20208;-56
2022/06/28 14:08:26;;;;;;;2.08;1.98;;;;;;;;;;5068204;28;20506;-56
2022/06/28 14:10:54;;;;;;;2.28;2.10;;;;;;;;;;5076783;28;20204;-56
2022/06/28 14:13:22;;;;;;;2.00;1.90;;;;;;;;;;5076923;28;20318;-56
2022/06/28 14:15:51;;;;;;;2.10;2.00;;;;;;;;;;5076239;28;20211;-56
2022/06/28 14:18:19;;;;;;;2.40;2.20;;;;;;;;;;5065411;28;20288;-56
2022/06/28 14:20:46;;;;;;;2.25;2.15;;;;;;;;;;5057008;28;20293;-56
2022/06/28 14:23:14;;;;;;;2.00;1.90;;;;;;;;;;5056287;28;20241;-56
2022/06/28 14:25:44;;;;;;;2.13;2.00;;;;;;;;;;5056912;28;20209;-56
2022/06/28 14:28:12;;;;;;;2.15;2.05;;;;;;;;;;5065298;28;20300;-56
2022/06/28 14:30:40;;;;;;;2.17;2.00;;;;;;;;;;5076081;28;20291;-56
2022/06/28 14:33:08;;;;;;;2.10;1.90;;;;;;;;;;5075254;28;20243;-57
2022/06/28 14:35:37;;;;;;;2.60;2.40;;;;;;;;;;5076634;28;20291;-56
2022/06/28 14:38:04;;;;;;;2.33;2.13;;;;;;;;;;5075755;28;20214;-57
2022/06/28 14:40:32;;;;;;;2.10;2.00;;;;;;;;;;5075319;28;20208;-56
2022/06/28 14:43:00;;;;;;;2.40;2.20;;;;;;;;;;5076709;28;20262;-57
2022/06/28 14:45:29;;;;;;;2.50;2.30;;;;;;;;;;5075955;28;20196;-56
2022/06/28 14:47:57;;;;;;;2.53;2.22;;;;;;;;;;5075083;28;20219;-57
2022/06/28 14:50:26;;;;;;;2.20;2.00;;;;;;;;;;5075097;28;20261;-57
2022/06/28 14:52:54;;;;;;;2.10;2.00;;;;;;;;;;5074610;28;20231;-56
2022/06/28 14:55:22;;;;;;;2.85;2.20;;;;;;;;;;5075776;28;20227;-58
2022/06/28 14:57:50;;;;;;;2.30;2.10;;;;;;;;;;5075329;28;20192;-57
2022/06/28 15:00:25;;;;;;;2.10;2.00;;;;;;;;;;5075847;28;20200;-56
2022/06/28 15:02:55;;;;;;;2.10;2.00;;;;;;;;;;5076139;28;20704;-57